Time;durP1;ratioP1;P1;durP2;ratioP2;P2;SDS_P1;SDS_P2;PMS_P1;PMS_P2;Temp;Humidity;BMP_temperature;BMP_pressure;BME280_temperature;BME280_humidity;BME280_pressure;Samples;Min_cycle;Max_cycle;Signal;HPM_P1;HPM_P2
2023/04/19 00:01:24;;;;;;;5.97;3.03;;;13.80;91.20;;;;;;5042304;28;20119;-72
2023/04/19 00:03:49;;;;;;;6.47;2.78;;;13.80;91.30;;;;;;5039629;28;20061;-72
2023/04/19 00:06:16;;;;;;;6.30;2.85;;;13.90;91.30;;;;;;5039335;28;20087;-72
2023/04/19 00:08:42;;;;;;;5.55;3.25;;;13.90;91.30;;;;;;5041469;28;20045;-72
2023/04/19 00:11:08;;;;;;;7.85;4.45;;;13.90;91.30;;;;;;5036388;28;20045;-72
2023/04/19 00:13:34;;;;;;;4.97;2.40;;;13.80;91.30;;;;;;5036671;28;20432;-72
2023/04/19 00:16:00;;;;;;;6.18;2.95;;;13.80;91.40;;;;;;5045182;28;20116;-73
2023/04/19 00:18:25;;;;;;;6.18;3.20;;;13.70;91.60;;;;;;5041337;28;20383;-72
2023/04/19 00:20:51;;;;;;;6.13;2.60;;;13.70;91.60;;;;;;5041917;28;20575;-72
2023/04/19 00:23:17;;;;;;;5.63;3.10;;;13.80;91.50;;;;;;5036611;28;20029;-72
2023/04/19 00:25:45;;;;;;;5.82;2.85;;;13.80;91.10;;;;;;5037671;28;20387;-72
2023/04/19 00:28:11;;;;;;;4.85;2.60;;;13.90;90.70;;;;;;5037206;28;20090;-72
2023/04/19 00:30:36;;;;;;;4.55;2.42;;;13.70;91.20;;;;;;5041638;28;20028;-72
2023/04/19 00:33:02;;;;;;;6.40;3.35;;;13.80;91.00;;;;;;5041711;28;23719;-72
2023/04/19 00:35:28;;;;;;;5.20;2.47;;;13.70;91.50;;;;;;5041365;28;20463;-72
2023/04/19 00:37:53;;;;;;;4.32;2.25;;;13.60;91.80;;;;;;5032337;28;20037;-73
2023/04/19 00:40:19;;;;;;;5.32;2.75;;;13.60;91.70;;;;;;5036979;28;20434;-73
2023/04/19 00:42:45;;;;;;;6.13;2.78;;;13.60;91.60;;;;;;5034146;28;20037;-73
2023/04/19 00:45:11;;;;;;;4.95;2.55;;;13.70;91.50;;;;;;5040814;28;20028;-72
2023/04/19 00:47:37;;;;;;;4.32;2.40;;;13.50;92.00;;;;;;5040675;28;20365;-72
2023/04/19 00:50:04;;;;;;;8.52;2.92;;;13.40;92.40;;;;;;5038348;28;20422;-72
2023/04/19 00:52:32;;;;;;;6.93;3.00;;;13.50;91.90;;;;;;5043843;28;20480;-72
2023/04/19 00:54:58;;;;;;;6.15;2.80;;;13.70;91.10;;;;;;5039061;28;20032;-73
2023/04/19 00:57:24;;;;;;;5.00;2.53;;;13.60;91.60;;;;;;5041304;28;23552;-72
2023/04/19 00:59:50;;;;;;;4.43;2.50;;;13.60;91.80;;;;;;5041340;28;20032;-72
2023/04/19 01:02:16;;;;;;;4.72;2.70;;;13.50;92.00;;;;;;5034652;28;20456;-72
2023/04/19 01:04:42;;;;;;;5.80;3.08;;;13.50;92.10;;;;;;5038232;28;20034;-72
2023/04/19 01:07:08;;;;;;;5.07;2.95;;;13.50;92.10;;;;;;5036594;28;20040;-72
2023/04/19 01:09:34;;;;;;;5.28;2.95;;;13.50;92.30;;;;;;5033942;28;20703;-72
2023/04/19 01:12:03;;;;;;;6.18;3.20;;;13.50;92.20;;;;;;5043051;28;20523;-72
2023/04/19 01:14:29;;;;;;;4.65;2.97;;;13.40;92.30;;;;;;5037341;28;20033;-72
2023/04/19 01:16:56;;;;;;;5.47;3.15;;;13.40;92.40;;;;;;5042605;28;20025;-72
2023/04/19 01:19:22;;;;;;;5.95;2.88;;;13.30;92.30;;;;;;5042611;28;20470;-72
2023/04/19 01:21:47;;;;;;;4.70;2.55;;;13.20;92.20;;;;;;5037536;28;20055;-72
2023/04/19 01:24:13;;;;;;;4.88;2.72;;;13.20;92.70;;;;;;5047494;28;20112;-72
2023/04/19 01:26:39;;;;;;;6.50;2.70;;;13.20;92.30;;;;;;5037599;28;20391;-73
2023/04/19 01:29:04;;;;;;;4.97;2.70;;;13.00;92.70;;;;;;5032222;28;20041;-72
2023/04/19 01:31:30;;;;;;;6.35;2.92;;;13.10;92.50;;;;;;5039464;28;20032;-73
2023/04/19 01:33:56;;;;;;;7.10;2.70;;;13.30;92.30;;;;;;5035131;28;20517;-72
2023/04/19 01:36:21;;;;;;;5.72;3.28;;;13.40;92.00;;;;;;5036762;28;20536;-72
2023/04/19 01:38:48;;;;;;;4.97;3.13;;;13.30;92.30;;;;;;5041949;28;20526;-72
2023/04/19 01:41:14;;;;;;;5.38;3.38;;;13.30;92.20;;;;;;5039103;28;20053;-72
2023/04/19 01:43:39;;;;;;;5.38;2.85;;;13.30;92.10;;;;;;5041226;28;20079;-72
2023/04/19 01:46:05;;;;;;;5.25;3.13;;;13.30;92.10;;;;;;5040686;28;20079;-72
2023/04/19 01:48:31;;;;;;;5.88;2.38;;;13.30;92.20;;;;;;5045017;28;20025;-72
2023/04/19 01:50:56;;;;;;;5.97;3.05;;;13.30;92.20;;;;;;5040381;28;20029;-72
2023/04/19 01:53:22;;;;;;;5.57;3.22;;;13.30;92.30;;;;;;5045396;28;20033;-72
2023/04/19 01:55:48;;;;;;;6.38;4.05;;;13.30;92.20;;;;;;5041477;28;20467;-72
2023/04/19 01:58:14;;;;;;;5.72;3.55;;;13.30;92.10;;;;;;5037172;28;20471;-72
2023/04/19 02:00:40;;;;;;;5.47;3.05;;;13.30;92.00;;;;;;5040218;28;20040;-73
2023/04/19 02:03:05;;;;;;;5.10;3.10;;;13.20;92.50;;;;;;5049324;28;20043;-72
2023/04/19 02:05:31;;;;;;;5.40;3.28;;;13.00;93.00;;;;;;5040845;28;20181;-73
2023/04/19 02:07:57;;;;;;;7.10;3.58;;;12.90;93.40;;;;;;5039161;28;20514;-72
2023/04/19 02:10:23;;;;;;;6.70;3.72;;;13.00;93.20;;;;;;5037021;28;20036;-72
2023/04/19 02:12:48;;;;;;;6.40;2.70;;;13.00;93.40;;;;;;5044786;28;20033;-72
2023/04/19 02:15:14;;;;;;;5.20;3.03;;;12.90;93.50;;;;;;5041810;28;20525;-72
2023/04/19 02:17:40;;;;;;;6.93;3.35;;;13.00;93.50;;;;;;5041106;28;20442;-73
2023/04/19 02:20:09;;;;;;;6.72;3.35;;;12.90;93.80;;;;;;5038661;28;20383;-72
2023/04/19 02:22:35;;;;;;;8.73;3.55;;;12.90;94.20;;;;;;5039190;28;20541;-72
2023/04/19 02:25:01;;;;;;;7.70;3.20;;;13.10;93.60;;;;;;5041389;28;20037;-72
2023/04/19 02:27:27;;;;;;;6.38;3.70;;;13.20;93.60;;;;;;5041158;28;20049;-72
2023/04/19 02:29:53;;;;;;;6.65;3.75;;;13.20;93.60;;;;;;5039668;28;20535;-72
2023/04/19 02:32:19;;;;;;;8.00;3.97;;;13.30;93.40;;;;;;5044323;28;20035;-72
2023/04/19 02:34:45;;;;;;;7.65;3.92;;;13.20;93.40;;;;;;5039379;28;20049;-72
2023/04/19 02:37:10;;;;;;;7.82;3.88;;;13.30;93.40;;;;;;5037556;28;20060;-73
2023/04/19 02:39:36;;;;;;;5.55;3.53;;;13.20;93.90;;;;;;5038566;28;20032;-72
2023/04/19 02:42:02;;;;;;;7.30;4.03;;;13.00;94.70;;;;;;5039753;28;20423;-72
2023/04/19 02:44:27;;;;;;;7.22;3.80;;;12.80;94.00;;;;;;5035810;28;20033;-72
2023/04/19 02:46:53;;;;;;;7.88;4.43;;;12.90;94.60;;;;;;5041680;28;20479;-72
2023/04/19 02:49:20;;;;;;;7.03;4.05;;;12.80;95.60;;;;;;5038800;28;20029;-72
2023/04/19 02:51:46;;;;;;;7.75;3.63;;;12.90;95.60;;;;;;5038858;28;20028;-72
2023/04/19 02:54:12;;;;;;;5.97;3.55;;;12.90;95.70;;;;;;5041376;28;20546;-72
2023/04/19 02:56:38;;;;;;;5.43;3.13;;;12.90;95.40;;;;;;5041398;28;20112;-72
2023/04/19 02:59:05;;;;;;;5.88;3.53;;;12.80;95.10;;;;;;5040409;28;20476;-72
2023/04/19 03:01:30;;;;;;;7.70;3.92;;;12.80;95.50;;;;;;5049693;28;20677;-72
2023/04/19 03:03:56;;;;;;;6.10;3.60;;;12.70;95.70;;;;;;5035513;28;20043;-73
2023/04/19 03:06:22;;;;;;;6.60;3.42;;;12.70;95.20;;;;;;5034779;28;20036;-73
2023/04/19 03:08:48;;;;;;;7.50;3.28;;;12.60;95.10;;;;;;5034459;28;20462;-72
2023/04/19 03:11:15;;;;;;;10.25;3.40;;;12.60;94.90;;;;;;5036529;28;20025;-74
2023/04/19 03:13:41;;;;;;;5.93;3.58;;;12.50;95.20;;;;;;5036891;28;20037;-73
2023/04/19 03:16:08;;;;;;;6.32;3.47;;;12.30;95.40;;;;;;5040636;28;20037;-73
2023/04/19 03:18:34;;;;;;;6.57;3.33;;;12.30;96.30;;;;;;5034754;28;20039;-73
2023/04/19 03:21:00;;;;;;;6.07;2.95;;;12.10;97.00;;;;;;5028318;28;20411;-73
2023/04/19 03:23:26;;;;;;;7.28;4.25;;;11.90;97.40;;;;;;5031830;28;20082;-73
2023/04/19 03:25:52;;;;;;;6.60;3.38;;;11.80;97.50;;;;;;5039891;28;20033;-72
2023/04/19 03:28:18;;;;;;;5.45;3.28;;;11.70;97.70;;;;;;5036015;28;20040;-74
2023/04/19 03:30:43;;;;;;;6.35;3.50;;;11.60;98.20;;;;;;5037852;28;20061;-73
2023/04/19 03:33:09;;;;;;;5.13;3.38;;;11.40;98.60;;;;;;5027662;28;20476;-73
2023/04/19 03:35:35;;;;;;;6.15;3.83;;;11.20;98.90;;;;;;5032632;28;20635;-73
2023/04/19 03:38:00;;;;;;;6.15;3.78;;;11.10;99.60;;;;;;5025757;28;20029;-73
2023/04/19 03:40:26;;;;;;;5.38;3.47;;;10.90;99.90;;;;;;5029448;28;20028;-73
2023/04/19 03:42:52;;;;;;;6.38;3.38;;;10.90;99.90;;;;;;5031503;28;20123;-72
2023/04/19 03:45:17;;;;;;;7.15;3.45;;;10.80;99.90;;;;;;5032686;28;20029;-72
2023/04/19 03:47:43;;;;;;;6.72;3.45;;;10.80;99.90;;;;;;5025236;28;20128;-73
2023/04/19 03:50:09;;;;;;;6.65;3.35;;;10.60;99.90;;;;;;5035171;28;20086;-72
2023/04/19 03:52:35;;;;;;;7.18;3.75;;;10.70;99.90;;;;;;5026675;28;20072;-73
2023/04/19 03:55:00;;;;;;;7.63;3.90;;;10.90;99.90;;;;;;5026791;28;20558;-72
2023/04/19 03:57:26;;;;;;;6.25;4.18;;;11.00;99.70;;;;;;5028895;28;20026;-72
2023/04/19 03:59:52;;;;;;;6.82;4.00;;;10.90;99.80;;;;;;5031189;28;20039;-73
2023/04/19 04:02:17;;;;;;;5.85;3.53;;;10.90;99.80;;;;;;5028613;28;20034;-72
2023/04/19 04:04:43;;;;;;;5.93;3.70;;;11.10;99.50;;;;;;5025265;28;20021;-73
2023/04/19 04:07:09;;;;;;;6.88;3.95;;;11.10;99.30;;;;;;5021522;28;20029;-73
2023/04/19 04:09:35;;;;;;;7.18;3.60;;;11.20;99.10;;;;;;5029550;28;20376;-74
2023/04/19 04:12:00;;;;;;;7.88;3.53;;;11.20;99.20;;;;;;5031038;28;20043;-72
2023/04/19 04:14:26;;;;;;;9.00;3.72;;;11.20;99.00;;;;;;5026298;28;20037;-73
2023/04/19 04:16:51;;;;;;;10.52;3.65;;;11.30;98.80;;;;;;5034863;28;20044;-72
2023/04/19 04:19:18;;;;;;;7.95;3.47;;;11.40;98.60;;;;;;5028015;28;20033;-72
2023/04/19 04:21:44;;;;;;;9.07;3.90;;;11.30;98.70;;;;;;5030522;28;20128;-72
2023/04/19 04:24:09;;;;;;;5.85;3.13;;;11.30;98.90;;;;;;5024135;28;20124;-72
2023/04/19 04:26:38;;;;;;;6.35;3.95;;;11.40;98.60;;;;;;5037457;28;20036;-72
2023/04/19 04:29:04;;;;;;;5.80;3.33;;;11.40;98.50;;;;;;5027919;28;20033;-72
2023/04/19 04:31:30;;;;;;;6.65;3.58;;;11.40;98.70;;;;;;5034382;28;20029;-72
2023/04/19 04:33:56;;;;;;;6.15;3.88;;;11.30;99.10;;;;;;5025474;28;20029;-73
2023/04/19 04:36:22;;;;;;;5.72;3.22;;;11.20;99.20;;;;;;5026298;28;20033;-72
2023/04/19 04:38:48;;;;;;;6.40;2.95;;;11.20;99.20;;;;;;5028983;28;20025;-72
2023/04/19 04:41:13;;;;;;;5.20;2.97;;;11.10;99.50;;;;;;5026234;28;20820;-72
2023/04/19 04:43:39;;;;;;;5.60;3.10;;;11.20;98.60;;;;;;5032089;28;20183;-72
2023/04/19 04:46:05;;;;;;;5.93;3.17;;;11.30;98.80;;;;;;5023453;28;20033;-72
2023/04/19 04:48:30;;;;;;;5.75;3.17;;;11.30;99.10;;;;;;5026971;28;20529;-76
2023/04/19 04:50:57;;;;;;;6.45;3.25;;;11.30;99.00;;;;;;5029809;28;20048;-72
2023/04/19 04:53:25;;;;;;;5.43;3.13;;;11.30;99.50;;;;;;5034790;28;20052;-73
2023/04/19 04:55:52;;;;;;;6.43;2.97;;;11.40;98.20;;;;;;5023526;28;20030;-73
2023/04/19 04:58:18;;;;;;;5.15;2.72;;;11.60;97.40;;;;;;5026549;28;20025;-75
2023/04/19 05:00:44;;;;;;;12.23;3.38;;;11.80;97.40;;;;;;5021406;28;20030;-73
2023/04/19 05:03:10;;;;;;;5.43;3.42;;;11.80;97.70;;;;;;5036464;28;20029;-74
2023/04/19 05:05:36;;;;;;;4.72;2.60;;;11.80;97.70;;;;;;5031348;28;20025;-74
2023/04/19 05:08:02;;;;;;;5.40;2.65;;;11.90;97.80;;;;;;5033686;28;20048;-76
2023/04/19 05:10:27;;;;;;;6.40;3.03;;;11.90;97.60;;;;;;5024980;28;20037;-73
2023/04/19 05:12:53;;;;;;;6.13;2.90;;;12.00;97.70;;;;;;5026965;28;20029;-73
2023/04/19 05:15:19;;;;;;;8.13;3.33;;;11.90;97.50;;;;;;5029205;28;20080;-73
2023/04/19 05:17:44;;;;;;;6.22;3.13;;;12.00;96.60;;;;;;5032014;28;20039;-73
2023/04/19 05:20:11;;;;;;;5.03;2.92;;;12.00;97.80;;;;;;5027325;28;20115;-73
2023/04/19 05:22:37;;;;;;;3.90;2.30;;;12.00;97.50;;;;;;5036643;28;20530;-74
2023/04/19 05:25:03;;;;;;;6.78;3.38;;;12.10;96.90;;;;;;5038622;28;20120;-73
2023/04/19 05:27:29;;;;;;;4.95;2.80;;;12.10;95.80;;;;;;5037605;28;20040;-75
2023/04/19 05:29:54;;;;;;;6.70;3.05;;;12.20;96.60;;;;;;5042945;28;20562;-75
2023/04/19 05:32:20;;;;;;;5.82;3.00;;;12.20;97.00;;;;;;5049348;28;20033;-73
2023/04/19 05:34:46;;;;;;;7.05;2.97;;;12.20;97.10;;;;;;5029589;28;20033;-73
2023/04/19 05:37:11;;;;;;;7.82;3.72;;;12.10;95.60;;;;;;5029575;28;20581;-73
2023/04/19 05:39:37;;;;;;;5.65;2.78;;;12.20;95.20;;;;;;5028321;28;20025;-74
2023/04/19 05:42:02;;;;;;;5.80;2.60;;;12.20;95.40;;;;;;5032452;28;20062;-75
2023/04/19 05:44:28;;;;;;;4.75;2.80;;;12.20;95.60;;;;;;5030902;28;20063;-73
2023/04/19 05:46:54;;;;;;;5.97;3.22;;;12.30;94.50;;;;;;5033338;28;20471;-73
2023/04/19 05:49:20;;;;;;;5.60;2.65;;;12.40;94.60;;;;;;5037678;28;20056;-74
2023/04/19 05:51:45;;;;;;;6.30;2.80;;;12.50;94.70;;;;;;5045973;28;20098;-74
2023/04/19 05:54:13;;;;;;;7.07;2.88;;;12.50;94.20;;;;;;5036352;28;20121;-74
2023/04/19 05:56:39;;;;;;;6.07;2.83;;;12.40;94.60;;;;;;5027782;28;20029;-74
2023/04/19 05:59:05;;;;;;;10.07;3.42;;;12.50;95.00;;;;;;5037859;28;20059;-74
2023/04/19 06:01:31;;;;;;;9.57;2.60;;;12.60;95.40;;;;;;5035824;28;20071;-74
2023/04/19 06:03:57;;;;;;;4.13;2.25;;;12.60;94.40;;;;;;5031401;28;20604;-73
2023/04/19 06:06:23;;;;;;;5.65;3.08;;;12.50;93.70;;;;;;5032223;28;20033;-76
2023/04/19 06:08:49;;;;;;;4.78;2.30;;;12.60;93.80;;;;;;5027751;28;20072;-74
2023/04/19 06:11:15;;;;;;;5.30;2.10;;;12.70;94.20;;;;;;5031356;28;20469;-74
2023/04/19 06:13:42;;;;;;;5.47;2.63;;;12.80;94.20;;;;;;5034594;28;20049;-73
2023/04/19 06:16:08;;;;;;;7.97;3.13;;;13.00;93.80;;;;;;5039782;28;20029;-74
2023/04/19 06:18:33;;;;;;;7.85;3.00;;;13.10;93.90;;;;;;5039255;28;20306;-77
2023/04/19 06:20:59;;;;;;;5.70;3.17;;;12.90;95.00;;;;;;5035224;28;20029;-73
2023/04/19 06:23:25;;;;;;;5.68;2.85;;;12.80;95.80;;;;;;5030113;28;20503;-77
2023/04/19 06:25:51;;;;;;;5.93;2.78;;;13.10;94.60;;;;;;5033559;28;20652;-74
2023/04/19 06:28:17;;;;;;;7.25;3.38;;;13.50;93.60;;;;;;5024867;28;20034;-74
2023/04/19 06:30:43;;;;;;;5.60;3.58;;;13.60;94.90;;;;;;5029749;28;20406;-74
2023/04/19 06:33:09;;;;;;;9.48;2.53;;;13.40;94.20;;;;;;5033663;28;20092;-74
2023/04/19 06:35:34;;;;;;;8.48;3.80;;;13.30;93.70;;;;;;5028474;28;20041;-78
2023/04/19 06:38:00;;;;;;;6.45;2.50;;;13.50;93.30;;;;;;5032230;28;20025;-73
2023/04/19 06:40:27;;;;;;;5.78;2.17;;;13.50;93.20;;;;;;5026892;28;20455;-75
2023/04/19 06:42:53;;;;;;;6.07;2.33;;;13.50;92.50;;;;;;5029229;28;20034;-75
2023/04/19 06:45:19;;;;;;;4.85;2.47;;;13.40;92.40;;;;;;5038476;28;20045;-73
2023/04/19 06:47:44;;;;;;;5.78;2.08;;;13.40;92.50;;;;;;5038940;28;20025;-73
2023/04/19 06:50:10;;;;;;;5.80;2.88;;;13.50;92.70;;;;;;5027666;28;20478;-73
2023/04/19 06:52:36;;;;;;;7.78;2.80;;;13.60;93.70;;;;;;5026641;28;20026;-75
2023/04/19 06:55:02;;;;;;;42.95;4.35;;;13.50;93.80;;;;;;5033477;28;20503;-73
2023/04/19 06:57:28;;;;;;;4.43;2.22;;;13.40;92.70;;;;;;5036024;28;20124;-75
2023/04/19 06:59:54;;;;;;;14.32;3.25;;;13.30;92.60;;;;;;5028325;28;20182;-70
2023/04/19 07:02:20;;;;;;;10.00;2.90;;;13.40;93.70;;;;;;5023698;28;20117;-71
2023/04/19 07:04:46;;;;;;;8.85;2.75;;;13.40;94.00;;;;;;5031676;28;20029;-75
2023/04/19 07:07:12;;;;;;;5.63;2.25;;;13.40;92.90;;;;;;5037825;28;20068;-74
2023/04/19 07:09:38;;;;;;;7.50;2.10;;;13.60;92.70;;;;;;5029312;28;20076;-75
2023/04/19 07:12:05;;;;;;;5.78;2.00;;;13.70;91.90;;;;;;5029356;28;20037;-75
2023/04/19 07:14:31;;;;;;;6.10;1.90;;;14.00;91.70;;;;;;5034872;28;20109;-74
2023/04/19 07:16:57;;;;;;;3.65;2.08;;;14.80;90.50;;;;;;5024927;28;20045;-73
2023/04/19 07:19:22;;;;;;;4.80;2.25;;;15.60;89.50;;;;;;5043381;28;20490;-74
2023/04/19 07:21:50;;;;;;;4.82;2.30;;;15.90;88.40;;;;;;5048378;28;20040;-73
2023/04/19 07:24:16;;;;;;;3.35;1.92;;;14.80;90.10;;;;;;5031141;28;21063;-74
2023/04/19 07:26:42;;;;;;;4.75;2.38;;;14.30;90.20;;;;;;5033542;28;20062;-72
2023/04/19 07:29:08;;;;;;;4.47;2.10;;;14.10;90.20;;;;;;5044023;28;20118;-73
2023/04/19 07:31:33;;;;;;;5.82;2.50;;;14.10;89.80;;;;;;5035957;28;20067;-74
2023/04/19 07:34:00;;;;;;;3.75;2.08;;;14.10;90.90;;;;;;5039104;28;20025;-75
2023/04/19 07:36:25;;;;;;;7.55;2.90;;;14.00;90.90;;;;;;5026608;28;20021;-76
2023/04/19 07:38:51;;;;;;;5.35;2.00;;;14.40;91.10;;;;;;5036955;28;20025;-74
2023/04/19 07:41:17;;;;;;;5.00;2.42;;;14.90;90.50;;;;;;5036801;28;20069;-73
2023/04/19 07:43:42;;;;;;;4.60;2.28;;;14.80;90.20;;;;;;5034412;28;20061;-74
2023/04/19 07:46:09;;;;;;;4.30;2.30;;;14.70;90.50;;;;;;5038154;28;20079;-73
2023/04/19 07:48:35;;;;;;;5.22;2.50;;;14.70;91.00;;;;;;5046246;28;20041;-73
2023/04/19 07:51:11;;;;;;;5.32;3.05;;;14.50;90.80;;;;;;5037661;28;20036;-71
2023/04/19 07:53:39;;;;;;;6.75;2.95;;;14.50;91.60;;;;;;5041749;28;20124;-73
2023/04/19 07:56:06;;;;;;;5.97;2.60;;;14.60;91.10;;;;;;5045318;28;20086;-73
2023/04/19 07:58:32;;;;;;;4.90;2.58;;;14.60;90.90;;;;;;5049706;28;20083;-74
2023/04/19 08:00:58;;;;;;;7.10;2.85;;;14.50;90.80;;;;;;5047670;28;20099;-73
2023/04/19 08:03:24;;;;;;;6.90;2.50;;;14.40;91.10;;;;;;5033900;28;20025;-73
2023/04/19 08:05:49;;;;;;;5.75;2.50;;;14.50;90.80;;;;;;5043110;28;20044;-73
2023/04/19 08:08:15;;;;;;;8.27;2.30;;;14.50;91.00;;;;;;5034708;28;20498;-73
2023/04/19 08:10:42;;;;;;;5.05;2.42;;;14.50;90.90;;;;;;5034248;28;20045;-73
2023/04/19 08:13:08;;;;;;;5.55;2.40;;;14.50;91.10;;;;;;5043127;28;20466;-73
2023/04/19 08:15:34;;;;;;;5.07;2.15;;;14.60;90.80;;;;;;5051669;28;20038;-73
2023/04/19 08:18:00;;;;;;;6.55;2.75;;;14.70;90.00;;;;;;5048113;28;20021;-72
2023/04/19 08:20:26;;;;;;;5.18;2.20;;;14.80;90.50;;;;;;5036674;28;20021;-73
2023/04/19 08:22:53;;;;;;;10.63;2.80;;;14.90;90.80;;;;;;5036242;28;20055;-72
2023/04/19 08:25:18;;;;;;;5.57;2.30;;;14.90;90.30;;;;;;5034991;28;20074;-73
2023/04/19 08:27:44;;;;;;;3.85;1.95;;;15.00;90.50;;;;;;5039292;28;20036;-73
2023/04/19 08:30:10;;;;;;;3.85;2.22;;;15.10;90.50;;;;;;5035996;28;20044;-73
2023/04/19 08:32:36;;;;;;;5.82;2.30;;;15.10;90.30;;;;;;5036300;28;20664;-73
2023/04/19 08:35:03;;;;;;;4.85;2.72;;;15.10;90.30;;;;;;5039355;28;20029;-73
2023/04/19 08:37:28;;;;;;;4.15;2.28;;;15.20;90.20;;;;;;5036955;28;21616;-72
2023/04/19 08:39:54;;;;;;;9.80;3.58;;;15.30;89.70;;;;;;5035842;28;20044;-74
2023/04/19 08:42:20;;;;;;;8.10;2.80;;;15.50;90.50;;;;;;5034434;28;20121;-72
2023/04/19 08:44:46;;;;;;;6.30;2.55;;;16.10;90.40;;;;;;5032080;28;20025;-73
2023/04/19 08:47:15;;;;;;;5.63;2.53;;;16.00;89.00;;;;;;5026980;28;20511;-74
2023/04/19 08:49:41;;;;;;;6.93;2.78;;;15.90;88.60;;;;;;5042440;28;20115;-74
2023/04/19 08:52:11;;;;;;;11.32;3.08;;;15.70;90.20;;;;;;5042873;28;20033;-75
2023/04/19 08:54:38;;;;;;;5.60;2.50;;;15.60;90.50;;;;;;5042684;28;20120;-75
2023/04/19 08:57:04;;;;;;;41.67;10.00;;;15.80;90.40;;;;;;5045994;28;20029;-73
2023/04/19 08:59:30;;;;;;;7.28;3.03;;;15.80;90.30;;;;;;5037267;28;20024;-74
2023/04/19 09:02:00;;;;;;;7.18;3.08;;;16.00;90.10;;;;;;5040514;28;20047;-73
2023/04/19 09:04:25;;;;;;;8.73;3.28;;;16.10;89.90;;;;;;5044976;28;20371;-72
2023/04/19 09:06:52;;;;;;;6.22;2.60;;;17.40;89.10;;;;;;5046773;28;20055;-74
2023/04/19 09:09:20;;;;;;;6.07;3.28;;;19.30;85.40;;;;;;5045365;28;20048;-73
2023/04/19 09:11:46;;;;;;;8.75;2.90;;;18.90;84.20;;;;;;5033188;28;20046;-75
2023/04/19 09:14:14;;;;;;;7.18;3.15;;;19.30;85.70;;;;;;5040539;28;20075;-73
2023/04/19 09:16:40;;;;;;;7.47;2.88;;;18.20;85.50;;;;;;5042119;28;20049;-72
2023/04/19 09:19:07;;;;;;;8.70;2.72;;;17.60;88.50;;;;;;5041245;28;20068;-75
2023/04/19 09:21:34;;;;;;;4.60;2.75;;;17.90;88.30;;;;;;5046825;28;20037;-73
2023/04/19 09:24:00;;;;;;;6.18;2.35;;;17.80;89.70;;;;;;5050676;28;20107;-71
2023/04/19 09:26:28;;;;;;;5.38;2.58;;;17.30;88.10;;;;;;5045163;28;20120;-72
2023/04/19 09:29:05;;;;;;;4.47;2.20;;;17.40;87.00;;;;;;5047125;28;20032;-74
2023/04/19 09:31:33;;;;;;;4.80;2.30;;;17.20;87.40;;;;;;5047051;28;20033;-73
2023/04/19 09:34:13;;;;;;;4.03;1.98;;;17.30;87.10;;;;;;5052954;28;20091;-73
2023/04/19 09:36:38;;;;;;;4.18;2.17;;;17.20;85.40;;;;;;5044503;28;20478;-73
2023/04/19 09:39:04;;;;;;;4.80;2.08;;;17.30;85.70;;;;;;5047928;28;20068;-73
2023/04/19 09:41:32;;;;;;;3.67;2.10;;;17.60;85.80;;;;;;5042389;28;20435;-73
2023/04/19 09:44:14;;;;;;;6.22;2.20;;;17.60;86.00;;;;;;5032468;28;20026;-71
2023/04/19 09:46:41;;;;;;;4.15;2.85;;;17.90;85.70;;;;;;5035991;28;20025;-72
2023/04/19 09:49:13;;;;;;;4.68;2.50;;;17.80;84.90;;;;;;5046964;28;20028;-73
2023/04/19 09:51:42;;;;;;;4.65;2.13;;;17.70;86.00;;;;;;5035525;28;20090;-74
2023/04/19 09:54:10;;;;;;;3.95;2.30;;;17.70;86.00;;;;;;5039308;28;20040;-73
2023/04/19 09:56:36;;;;;;;4.35;1.95;;;17.60;85.40;;;;;;5043738;28;20679;-73
2023/04/19 09:59:02;;;;;;;5.47;2.88;;;17.70;85.60;;;;;;5033537;28;20032;-73
2023/04/19 10:01:34;;;;;;;4.72;2.28;;;17.30;85.50;;;;;;5044548;28;20459;-74
2023/04/19 10:04:01;;;;;;;4.95;2.92;;;17.40;87.80;;;;;;5042692;28;20127;-74
2023/04/19 10:06:27;;;;;;;10.27;3.35;;;17.80;87.10;;;;;;5048644;28;20071;-74
2023/04/19 10:08:54;;;;;;;5.20;3.22;;;18.20;86.80;;;;;;5047944;28;20575;-73
2023/04/19 10:11:21;;;;;;;8.02;3.38;;;17.90;86.60;;;;;;5056881;28;20025;-74
2023/04/19 10:13:48;;;;;;;6.93;3.60;;;17.80;87.80;;;;;;5050270;28;20032;-74
2023/04/19 10:16:14;;;;;;;6.78;3.63;;;17.60;86.60;;;;;;5049953;28;20104;-75
2023/04/19 10:18:40;;;;;;;5.93;3.60;;;17.70;87.00;;;;;;5045152;28;20032;-76
2023/04/19 10:21:09;;;;;;;5.53;3.28;;;17.80;88.10;;;;;;5055413;28;20033;-78
2023/04/19 10:23:36;;;;;;;6.95;4.28;;;17.80;88.80;;;;;;5039626;28;20044;-75
2023/04/19 10:26:02;;;;;;;6.20;4.03;;;18.00;89.20;;;;;;5045255;28;20021;-76
2023/04/19 10:28:29;;;;;;;8.18;4.75;;;18.10;88.00;;;;;;5036342;28;20032;-75
2023/04/19 10:31:04;;;;;;;6.53;4.13;;;18.50;86.90;;;;;;5049373;28;20028;-76
2023/04/19 10:33:35;;;;;;;7.72;5.32;;;18.40;86.70;;;;;;5035517;28;20025;-77
2023/04/19 10:36:01;;;;;;;7.65;4.57;;;18.40;85.40;;;;;;5038926;28;20025;-81
2023/04/19 10:38:44;;;;;;;6.55;4.40;;;18.60;86.20;;;;;;5039020;28;20043;-78
2023/04/19 10:41:15;;;;;;;7.43;4.22;;;18.90;84.60;;;;;;5035372;28;20052;-75
2023/04/19 10:44:08;;;;;;;7.00;4.20;;;18.80;83.40;;;;;;5040554;28;20033;-74
2023/04/19 10:46:34;;;;;;;6.78;4.13;;;18.60;83.70;;;;;;5032720;28;20033;-72
2023/04/19 10:49:01;;;;;;;6.60;3.60;;;18.40;84.00;;;;;;5034198;28;20029;-72
2023/04/19 10:51:28;;;;;;;5.82;4.00;;;18.20;85.40;;;;;;5035128;28;20060;-75
2023/04/19 10:53:59;;;;;;;5.65;3.90;;;18.20;86.10;;;;;;5033281;28;20037;-74
2023/04/19 10:56:33;;;;;;;6.03;4.15;;;18.40;85.30;;;;;;5037186;28;20666;-76
2023/04/19 10:59:09;;;;;;;7.35;4.28;;;18.60;85.60;;;;;;5029496;28;20523;-75
2023/04/19 11:01:47;;;;;;;6.65;4.10;;;18.70;86.10;;;;;;5032011;28;20037;-73
2023/04/19 11:04:29;;;;;;;7.95;3.63;;;18.60;84.80;;;;;;5044773;28;20064;-74
2023/04/19 11:06:55;;;;;;;7.07;3.53;;;18.90;84.90;;;;;;5045054;28;20044;-72
2023/04/19 11:09:38;;;;;;;5.38;3.22;;;19.20;84.90;;;;;;5035361;28;20053;-75
2023/04/19 11:12:14;;;;;;;7.20;3.35;;;19.60;85.30;;;;;;5043946;28;20050;-74
2023/04/19 11:14:41;;;;;;;6.78;3.45;;;19.50;83.60;;;;;;5043535;28;20029;-77
2023/04/19 11:17:16;;;;;;;4.75;3.20;;;19.20;82.20;;;;;;5045343;28;20037;-73
2023/04/19 11:19:52;;;;;;;5.15;3.10;;;19.10;82.60;;;;;;5042728;28;20032;-77
2023/04/19 11:22:23;;;;;;;5.40;2.53;;;18.90;81.50;;;;;;5035659;28;20660;-76
2023/04/19 11:24:48;;;;;;;4.40;2.50;;;18.50;80.60;;;;;;5044592;28;20033;-73
2023/04/19 11:27:14;;;;;;;5.93;2.58;;;18.70;81.50;;;;;;5045231;28;20119;-74
2023/04/19 11:29:40;;;;;;;6.03;3.15;;;19.10;83.70;;;;;;5032235;28;20840;-73
2023/04/19 11:32:06;;;;;;;4.25;2.42;;;19.10;81.60;;;;;;5043171;28;20045;-77
2023/04/19 11:34:39;;;;;;;4.40;2.38;;;19.20;81.50;;;;;;5042960;28;20142;-73
2023/04/19 11:37:05;;;;;;;3.70;2.45;;;19.40;80.70;;;;;;5043658;28;20590;-72
2023/04/19 11:39:30;;;;;;;5.82;3.00;;;19.60;81.10;;;;;;5039934;28;20157;-72
2023/04/19 11:41:57;;;;;;;8.10;2.47;;;19.60;80.50;;;;;;5035616;28;20049;-72
2023/04/19 11:44:23;;;;;;;4.93;2.20;;;19.70;82.30;;;;;;5026769;28;20507;-72
2023/04/19 11:46:59;;;;;;;7.47;2.85;;;19.70;80.60;;;;;;5054673;28;20036;-73
2023/04/19 11:49:27;;;;;;;5.55;2.33;;;19.70;79.60;;;;;;5057217;28;20093;-76
2023/04/19 11:52:01;;;;;;;4.40;2.30;;;19.50;80.70;;;;;;5033470;28;20037;-72
2023/04/19 11:54:26;;;;;;;6.00;1.92;;;19.30;80.00;;;;;;5033083;28;20437;-73
2023/04/19 11:57:03;;;;;;;9.85;2.60;;;19.00;81.40;;;;;;5047586;28;20100;-76
2023/04/19 11:59:30;;;;;;;11.05;2.15;;;19.00;79.00;;;;;;5037201;28;20597;-72
2023/04/19 12:02:03;;;;;;;5.68;2.95;;;19.00;80.70;;;;;;5039804;28;20037;-72
2023/04/19 12:04:28;;;;;;;5.10;2.63;;;19.20;82.50;;;;;;5043278;28;20510;-73
2023/04/19 12:06:59;;;;;;;9.98;2.60;;;19.10;81.60;;;;;;5043900;28;20047;-73
2023/04/19 12:09:24;;;;;;;5.88;2.70;;;19.20;81.60;;;;;;5045457;28;20507;-74
2023/04/19 12:11:50;;;;;;;5.78;3.05;;;19.10;82.30;;;;;;5043799;28;20036;-72
2023/04/19 12:14:20;;;;;;;7.07;2.88;;;19.20;82.90;;;;;;5038188;28;20025;-73
2023/04/19 12:16:45;;;;;;;8.77;3.10;;;19.30;83.00;;;;;;5042092;28;20494;-72
2023/04/19 12:19:16;;;;;;;5.97;2.22;;;19.40;82.90;;;;;;5047400;28;20082;-74
2023/04/19 12:21:43;;;;;;;6.38;2.80;;;19.40;83.00;;;;;;5040574;28;20032;-72
2023/04/19 12:24:09;;;;;;;5.70;2.40;;;19.20;81.50;;;;;;5041524;28;20500;-73
2023/04/19 12:26:35;;;;;;;4.60;2.50;;;19.20;82.00;;;;;;5032615;28;20031;-73
2023/04/19 12:29:02;;;;;;;3.95;2.25;;;19.20;82.20;;;;;;5039220;28;20043;-77
2023/04/19 12:31:30;;;;;;;7.93;2.63;;;18.90;80.60;;;;;;5042843;28;20577;-74
2023/04/19 12:33:56;;;;;;;4.95;2.55;;;18.90;80.90;;;;;;5053269;28;20052;-73
2023/04/19 12:36:22;;;;;;;4.45;2.30;;;18.90;82.90;;;;;;5046249;28;20549;-73
2023/04/19 12:38:48;;;;;;;4.22;2.38;;;18.80;81.90;;;;;;5038237;28;20452;-72
2023/04/19 12:41:13;;;;;;;4.70;3.13;;;18.90;82.70;;;;;;5052455;28;20033;-73
2023/04/19 12:43:39;;;;;;;5.70;3.28;;;18.70;83.30;;;;;;5041357;28;20112;-73